createdAt,value
2024-01-03T00:01:32.669Z,9.58
2024-01-03T00:04:01.859Z,9.54
2024-01-03T00:06:38.691Z,9.46
2024-01-03T00:09:07.881Z,9.46
2024-01-03T00:11:39.044Z,9.50
2024-01-03T00:14:12.328Z,9.53
2024-01-03T00:16:41.457Z,9.53
2024-01-03T00:19:24.943Z,9.56
2024-01-03T00:21:55.467Z,9.49
2024-01-03T00:24:28.946Z,9.47
2024-01-03T00:27:00.354Z,9.46
2024-01-03T00:29:28.839Z,9.43
2024-01-03T00:32:05.116Z,9.46
2024-01-03T00:34:41.972Z,9.47
2024-01-03T00:37:31.289Z,9.50
2024-01-03T00:40:08.201Z,9.43
2024-01-03T00:42:42.673Z,9.39
2024-01-03T00:45:10.966Z,9.36
2024-01-03T00:47:39.338Z,9.32
2024-01-03T00:50:08.749Z,9.28
2024-01-03T00:52:41.959Z,9.26
2024-01-03T00:55:13.781Z,9.25
2024-01-03T00:57:42.703Z,9.26
2024-01-03T01:00:22.102Z,9.25
2024-01-03T01:02:59.737Z,9.19
2024-01-03T01:05:30.799Z,9.22
2024-01-03T01:08:03.717Z,9.18
2024-01-03T01:10:32.102Z,9.16
2024-01-03T01:13:02.686Z,9.18
2024-01-03T01:15:31.888Z,9.16
2024-01-03T01:18:02.686Z,9.15
2024-01-03T01:20:33.549Z,9.12
2024-01-03T01:23:02.393Z,9.16
2024-01-03T01:25:39.531Z,9.21
2024-01-03T01:28:09.526Z,9.19
2024-01-03T01:30:40.194Z,9.12
2024-01-03T01:33:10.721Z,9.15
2024-01-03T01:35:38.923Z,9.11
2024-01-03T01:38:08.520Z,9.15
2024-01-03T01:40:38.023Z,9.07
2024-01-03T01:43:06.371Z,9.15
2024-01-03T01:45:34.412Z,9.14
2024-01-03T01:48:03.719Z,9.16
2024-01-03T01:50:32.303Z,9.16
2024-01-03T01:53:00.623Z,9.22
2024-01-03T01:55:29.341Z,9.28
2024-01-03T01:57:59.407Z,9.30
2024-01-03T02:00:28.954Z,9.29
2024-01-03T02:02:57.938Z,9.35
2024-01-03T02:05:27.517Z,9.38
2024-01-03T02:07:56.023Z,9.46
2024-01-03T02:10:24.735Z,9.46
2024-01-03T02:12:53.420Z,9.46
2024-01-03T02:15:21.841Z,9.46
2024-01-03T02:17:50.576Z,9.54
2024-01-03T02:20:18.550Z,9.54
2024-01-03T02:22:46.537Z,9.57
2024-01-03T02:25:17.496Z,9.63
2024-01-03T02:27:45.973Z,9.61
2024-01-03T02:30:16.911Z,9.64
2024-01-03T02:32:48.104Z,9.63
2024-01-03T02:35:22.139Z,9.71
2024-01-03T02:37:50.219Z,9.73
2024-01-03T02:40:18.287Z,9.78
2024-01-03T02:42:49.130Z,9.78
2024-01-03T02:45:17.394Z,9.74
2024-01-03T02:47:45.626Z,9.77
2024-01-03T02:50:13.746Z,9.74
2024-01-03T02:52:41.705Z,9.80
2024-01-03T02:55:12.526Z,9.77
2024-01-03T02:57:42.387Z,9.71
2024-01-03T03:00:13.861Z,9.75
2024-01-03T03:02:47.774Z,9.85
2024-01-03T03:05:16.214Z,9.81
2024-01-03T03:07:47.381Z,9.84
2024-01-03T03:10:22.559Z,9.91
2024-01-03T03:12:50.878Z,9.94
2024-01-03T03:15:22.288Z,9.95
2024-01-03T03:17:54.065Z,10.01
2024-01-03T03:20:32.572Z,10.01
2024-01-03T03:23:04.874Z,9.98
2024-01-03T03:25:35.073Z,9.99
2024-01-03T03:28:09.533Z,10.05
2024-01-03T03:30:38.279Z,10.05
2024-01-03T03:33:08.687Z,10.01
2024-01-03T03:35:38.225Z,10.01
2024-01-03T03:38:09.060Z,9.97
2024-01-03T03:40:41.717Z,9.91
2024-01-03T03:43:12.774Z,9.93
2024-01-03T03:45:48.647Z,9.98
2024-01-03T03:48:21.927Z,10.01
2024-01-03T03:50:51.049Z,9.97
2024-01-03T03:53:31.481Z,9.90
2024-01-03T03:55:59.867Z,9.88
2024-01-03T03:58:33.197Z,9.87
2024-01-03T04:01:01.658Z,9.84
2024-01-03T04:03:32.765Z,9.85
2024-01-03T04:06:04.647Z,9.84
2024-01-03T04:08:39.312Z,9.91
2024-01-03T04:11:11.628Z,9.93
2024-01-03T04:13:42.915Z,10.01
2024-01-03T04:16:11.874Z,10.06
2024-01-03T04:18:47.080Z,10.08
2024-01-03T04:21:22.924Z,10.09
2024-01-03T04:23:51.178Z,10.13
2024-01-03T04:26:19.774Z,10.15
2024-01-03T04:28:53.213Z,10.13
2024-01-03T04:31:33.548Z,10.23
2024-01-03T04:34:09.014Z,10.26
2024-01-03T04:36:40.044Z,10.19
2024-01-03T04:39:31.095Z,10.23
2024-01-03T04:42:11.536Z,10.22
2024-01-03T04:44:53.403Z,10.25
2024-01-03T04:47:46.506Z,10.28
2024-01-03T04:50:34.895Z,10.23
2024-01-03T04:53:04.090Z,10.22
2024-01-03T04:55:35.315Z,10.23
2024-01-03T04:58:04.703Z,10.23
2024-01-03T05:00:34.826Z,10.22
2024-01-03T05:03:07.725Z,10.18
2024-01-03T05:08:30.071Z,10.18
2024-01-03T05:11:02.214Z,10.23
2024-01-03T05:16:25.028Z,10.22
2024-01-03T05:18:59.276Z,10.26
2024-01-03T05:21:30.342Z,10.25
2024-01-03T05:24:01.510Z,10.21
2024-01-03T05:26:30.212Z,10.23
2024-01-03T05:29:01.186Z,10.16
2024-01-03T05:31:30.588Z,10.12
2024-01-03T05:34:01.423Z,10.13
2024-01-03T05:36:32.594Z,10.16
2024-01-03T05:39:00.984Z,10.23
2024-01-03T05:41:33.141Z,10.22
2024-01-03T05:44:09.435Z,10.25
2024-01-03T05:46:44.474Z,10.16
2024-01-03T05:49:20.954Z,10.19
2024-01-03T05:51:52.763Z,10.22
2024-01-03T05:54:30.058Z,10.13
2024-01-03T05:56:58.880Z,10.13
2024-01-03T05:59:31.371Z,10.08
2024-01-03T06:02:04.597Z,10.05
2024-01-03T06:04:33.146Z,10.05
2024-01-03T06:07:05.612Z,9.98
2024-01-03T06:09:38.679Z,9.91
2024-01-03T06:12:14.935Z,9.91
2024-01-03T06:14:44.263Z,9.91
2024-01-03T06:17:17.282Z,9.90
2024-01-03T06:19:46.135Z,9.81
2024-01-03T06:22:17.346Z,9.71
2024-01-03T06:24:50.175Z,9.70
2024-01-03T06:27:18.591Z,9.61
2024-01-03T06:29:46.785Z,9.61
2024-01-03T06:32:16.585Z,9.56
2024-01-03T06:34:53.571Z,9.58
2024-01-03T06:37:48.492Z,9.64
2024-01-03T06:40:29.886Z,9.63
2024-01-03T06:43:09.196Z,9.49
2024-01-03T06:45:41.731Z,9.53
2024-01-03T06:48:11.226Z,9.47
2024-01-03T06:51:03.972Z,9.54
2024-01-03T06:57:04.732Z,9.53
2024-01-03T06:59:39.355Z,9.49
2024-01-03T07:02:11.543Z,9.50
2024-01-03T07:04:41.292Z,9.49
2024-01-03T07:07:10.829Z,9.47
2024-01-03T07:09:40.323Z,9.47
2024-01-03T07:12:23.921Z,9.54
2024-01-03T07:15:05.504Z,9.53
2024-01-03T07:18:07.235Z,9.53
2024-01-03T07:21:02.527Z,9.44
2024-01-03T07:23:32.057Z,9.54
2024-01-03T07:26:03.645Z,9.56
2024-01-03T07:31:38.659Z,9.60
2024-01-03T07:34:10.577Z,9.51
2024-01-03T07:36:51.703Z,9.56
2024-01-03T07:39:22.979Z,9.54
2024-01-03T07:41:51.829Z,9.43
2024-01-03T07:44:23.884Z,9.46
2024-01-03T07:46:55.002Z,9.42
2024-01-03T07:49:32.436Z,9.33
2024-01-03T07:52:04.599Z,9.32
2024-01-03T07:54:33.382Z,9.35
2024-01-03T07:57:07.064Z,9.30
2024-01-03T07:59:35.858Z,9.26
2024-01-03T08:02:05.161Z,9.29
2024-01-03T08:04:33.829Z,9.26
2024-01-03T08:07:14.954Z,9.22
2024-01-03T08:09:45.674Z,9.15
2024-01-03T08:12:14.169Z,9.25
2024-01-03T08:14:47.457Z,9.18
2024-01-03T08:17:18.092Z,9.16
2024-01-03T08:19:48.771Z,9.07
2024-01-03T08:22:20.433Z,9.02
2024-01-03T08:24:49.059Z,9.02
2024-01-03T08:27:22.180Z,9.00
2024-01-03T08:29:54.334Z,8.92
2024-01-03T08:32:27.675Z,8.91
2024-01-03T08:34:56.309Z,8.91
2024-01-03T08:37:24.747Z,8.95
2024-01-03T08:39:54.201Z,8.94
2024-01-03T08:42:25.046Z,9.01
2024-01-03T08:44:56.517Z,9.02
2024-01-03T08:47:25.371Z,9.02
2024-01-03T08:49:53.921Z,9.01
2024-01-03T08:52:27.130Z,9.07
2024-01-03T08:54:56.167Z,9.07
2024-01-03T08:57:28.429Z,9.10
2024-01-03T09:00:16.906Z,9.10
2024-01-03T09:02:51.874Z,9.05
2024-01-03T09:05:36.838Z,9.12
2024-01-03T09:11:15.938Z,9.18
2024-01-03T09:16:39.375Z,9.28
2024-01-03T09:19:10.665Z,9.39
2024-01-03T09:21:46.740Z,9.43
2024-01-03T09:24:15.418Z,9.56
2024-01-03T09:26:43.914Z,9.61
2024-01-03T09:29:12.970Z,9.63
2024-01-03T09:31:45.360Z,9.58
2024-01-03T09:34:16.898Z,9.61
2024-01-03T09:36:45.473Z,9.64
2024-01-03T09:39:17.519Z,9.69
2024-01-03T09:41:52.740Z,9.85
2024-01-03T09:44:21.924Z,9.81
2024-01-03T09:46:56.967Z,9.94
2024-01-03T09:49:49.581Z,9.98
2024-01-03T09:52:34.033Z,9.87
2024-01-03T09:55:17.806Z,9.90
2024-01-03T09:58:07.984Z,9.90
2024-01-03T10:00:52.137Z,10.01
2024-01-03T10:03:30.205Z,9.95
2024-01-03T10:06:21.570Z,10.06
2024-01-03T10:12:20.887Z,10.15
2024-01-03T10:15:02.555Z,10.19
2024-01-03T10:18:05.936Z,10.22
2024-01-03T10:24:07.593Z,10.13
2024-01-03T10:29:57.758Z,10.06
2024-01-03T10:32:32.970Z,9.87
2024-01-03T10:35:29.062Z,9.75
2024-01-03T10:38:12.482Z,9.63
2024-01-03T10:40:45.710Z,9.53
2024-01-03T10:46:16.975Z,9.47
2024-01-03T10:48:53.341Z,9.50
2024-01-03T10:51:25.535Z,9.60
2024-01-03T10:54:02.385Z,9.60
2024-01-03T10:56:38.462Z,9.57
2024-01-03T10:59:08.748Z,9.50
2024-01-03T11:02:00.530Z,9.54
2024-01-03T11:04:54.005Z,9.50
2024-01-03T11:07:40.975Z,9.49
2024-01-03T11:10:09.159Z,9.60
2024-01-03T11:12:38.001Z,9.64
2024-01-03T11:15:33.416Z,9.64
2024-01-03T11:18:07.733Z,9.78
2024-01-03T11:20:39.144Z,9.80
2024-01-03T11:23:07.758Z,9.87
2024-01-03T11:25:52.909Z,10.01
2024-01-03T11:28:35.098Z,10.05
2024-01-03T11:31:04.456Z,10.04
2024-01-03T11:33:33.976Z,10.06
2024-01-03T11:36:02.931Z,10.06
2024-01-03T11:38:48.119Z,10.11
2024-01-03T11:41:19.652Z,10.22
2024-01-03T11:43:52.506Z,10.18
2024-01-03T11:46:21.047Z,10.16
2024-01-03T11:48:50.088Z,10.16
2024-01-03T11:51:27.674Z,10.15
2024-01-03T11:56:51.477Z,10.12
2024-01-03T11:59:26.252Z,10.01
2024-01-03T12:02:01.848Z,9.88
2024-01-03T12:04:32.584Z,9.81
2024-01-03T12:07:02.198Z,9.88
2024-01-03T12:09:33.346Z,9.88
2024-01-03T12:12:02.606Z,9.77
2024-01-03T12:14:33.161Z,9.69
2024-01-03T12:17:22.339Z,9.77
2024-01-03T12:19:56.336Z,9.69
2024-01-03T12:22:25.319Z,9.66
2024-01-03T12:25:10.385Z,9.54
2024-01-03T12:27:39.693Z,9.56
2024-01-03T12:33:10.498Z,9.53
2024-01-03T12:35:39.676Z,9.57
2024-01-03T12:38:07.906Z,9.64
2024-01-03T12:40:35.962Z,9.71
2024-01-03T12:43:04.542Z,9.69
2024-01-03T12:45:32.599Z,9.74
2024-01-03T12:48:00.822Z,9.83
2024-01-03T12:50:29.013Z,9.93
2024-01-03T12:52:57.047Z,9.97
2024-01-03T12:55:25.478Z,10.08
2024-01-03T12:57:53.815Z,10.32
2024-01-03T13:00:22.371Z,10.25
2024-01-03T13:02:50.842Z,10.19
2024-01-03T13:05:19.548Z,10.09
2024-01-03T13:07:51.009Z,10.04
2024-01-03T13:10:19.480Z,9.94
2024-01-03T13:12:48.061Z,9.98
2024-01-03T13:15:16.556Z,10.16
2024-01-03T13:17:46.584Z,10.30
2024-01-03T13:20:15.663Z,10.32
2024-01-03T13:22:45.743Z,10.39
2024-01-03T13:25:13.827Z,10.56
2024-01-03T13:27:44.478Z,10.59
2024-01-03T13:30:14.265Z,10.46
2024-01-03T13:32:43.145Z,10.42
2024-01-03T13:35:14.563Z,10.28
2024-01-03T13:37:48.345Z,10.23
2024-01-03T13:40:16.455Z,10.08
2024-01-03T13:42:46.722Z,9.90
2024-01-03T13:45:15.038Z,9.87
2024-01-03T13:47:43.486Z,9.84
2024-01-03T13:50:11.703Z,9.80
2024-01-03T13:52:42.918Z,9.78
2024-01-03T13:55:11.111Z,9.83
2024-01-03T13:57:39.229Z,9.93
2024-01-03T14:00:11.006Z,9.84
2024-01-03T14:02:39.890Z,9.85
2024-01-03T14:05:08.246Z,9.81
2024-01-03T14:07:37.543Z,9.75
2024-01-03T14:10:08.279Z,9.70
2024-01-03T14:12:36.262Z,9.69
2024-01-03T14:15:04.928Z,9.67
2024-01-03T14:17:33.576Z,9.66
2024-01-03T14:20:06.600Z,9.67
2024-01-03T14:22:35.385Z,9.69
2024-01-03T14:25:04.275Z,9.56
2024-01-03T14:27:32.587Z,9.60
2024-01-03T14:30:02.450Z,9.57
2024-01-03T14:32:30.753Z,9.51
2024-01-03T14:34:59.378Z,9.50
2024-01-03T14:37:29.717Z,9.43
2024-01-03T14:39:57.748Z,9.43
2024-01-03T14:42:27.674Z,9.36
2024-01-03T14:44:55.887Z,9.38
2024-01-03T14:47:23.863Z,9.29
2024-01-03T14:49:51.833Z,9.33
2024-01-03T14:52:20.329Z,9.38
2024-01-03T14:54:48.240Z,9.40
2024-01-03T14:57:16.345Z,9.42
2024-01-03T14:59:45.045Z,9.42
2024-01-03T15:02:12.985Z,9.42
2024-01-03T15:04:40.916Z,9.28
2024-01-03T15:07:08.989Z,9.32
2024-01-03T15:09:39.717Z,9.28
2024-01-03T15:12:08.103Z,9.32
2024-01-03T15:14:37.841Z,9.23
2024-01-03T15:17:06.896Z,9.19
2024-01-03T15:19:34.963Z,9.16
2024-01-03T15:22:10.569Z,9.11
2024-01-03T15:24:39.440Z,9.08
2024-01-03T15:27:07.489Z,9.08
2024-01-03T15:29:35.625Z,9.11
2024-01-03T15:32:05.193Z,9.08
2024-01-03T15:34:33.270Z,9.04
2024-01-03T15:37:01.497Z,9.04
2024-01-03T15:39:29.682Z,9.00
2024-01-03T15:41:58.203Z,8.95
2024-01-03T15:44:27.012Z,8.92
2024-01-03T15:46:54.895Z,8.87
2024-01-03T15:49:25.923Z,8.87
2024-01-03T15:51:57.640Z,8.85
2024-01-03T15:54:36.546Z,8.74
2024-01-03T15:57:12.452Z,8.75
2024-01-03T15:59:40.470Z,8.66
2024-01-03T16:02:08.760Z,8.68
2024-01-03T16:04:37.017Z,8.60
2024-01-03T16:07:05.156Z,8.54
2024-01-03T16:09:36.105Z,8.50
2024-01-03T16:12:07.913Z,8.54
2024-01-03T16:14:40.557Z,8.47
2024-01-03T16:17:09.366Z,8.36
2024-01-03T16:19:37.437Z,8.33
2024-01-03T16:22:05.419Z,8.45
2024-01-03T16:24:33.434Z,8.53
2024-01-03T16:27:06.112Z,8.47
2024-01-03T16:29:35.024Z,8.46
2024-01-03T16:32:04.828Z,8.57
2024-01-03T16:34:33.565Z,8.56
2024-01-03T16:37:04.036Z,8.52
2024-01-03T16:39:33.954Z,8.49
2024-01-03T16:42:02.105Z,8.50
2024-01-03T16:44:30.615Z,8.49
2024-01-03T16:47:00.831Z,8.60
2024-01-03T16:49:30.228Z,8.59
2024-01-03T16:51:58.544Z,8.56
2024-01-03T16:54:26.488Z,8.60
2024-01-03T16:56:56.278Z,8.54
2024-01-03T16:59:24.948Z,8.64
2024-01-03T17:01:54.139Z,8.63
2024-01-03T17:04:25.617Z,8.67
2024-01-03T17:06:55.132Z,8.61
2024-01-03T17:09:23.885Z,8.61
2024-01-03T17:11:52.576Z,8.64
2024-01-03T17:14:25.412Z,8.60
2024-01-03T17:16:53.552Z,8.74
2024-01-03T17:19:21.991Z,8.66
2024-01-03T17:21:49.922Z,8.68
2024-01-03T17:24:17.922Z,8.74
2024-01-03T17:26:46.034Z,8.80
2024-01-03T17:29:14.589Z,8.77
2024-01-03T17:31:42.897Z,8.74
2024-01-03T17:34:10.921Z,8.84
2024-01-03T17:36:38.995Z,8.80
2024-01-03T17:39:06.887Z,8.77
2024-01-03T17:41:40.911Z,8.87
2024-01-03T17:44:09.379Z,8.83
2024-01-03T17:46:37.870Z,8.87
2024-01-03T17:49:06.140Z,8.74
2024-01-03T17:51:39.280Z,8.85
2024-01-03T17:54:07.796Z,8.85
2024-01-03T17:56:35.821Z,8.83
2024-01-03T17:59:05.368Z,8.81
2024-01-03T18:01:34.260Z,8.80
2024-01-03T18:04:02.314Z,8.84
2024-01-03T18:06:30.354Z,8.85
2024-01-03T18:08:58.636Z,8.75
2024-01-03T18:11:28.845Z,8.85
2024-01-03T18:14:00.744Z,8.85
2024-01-03T18:16:28.778Z,8.98
2024-01-03T18:18:56.816Z,8.87
2024-01-03T18:21:24.770Z,8.87
2024-01-03T18:23:53.097Z,8.92
2024-01-03T18:26:22.643Z,8.83
2024-01-03T18:28:50.959Z,8.85
2024-01-03T18:31:19.039Z,8.87
2024-01-03T18:33:47.083Z,8.84
2024-01-03T18:36:15.854Z,8.94
2024-01-03T18:38:43.847Z,8.94
2024-01-03T18:41:11.873Z,8.88
2024-01-03T18:43:39.878Z,8.87
2024-01-03T18:46:08.047Z,8.78
2024-01-03T18:48:36.094Z,8.74
2024-01-03T18:51:04.620Z,8.70
2024-01-03T18:53:34.566Z,8.66
2024-01-03T18:56:02.605Z,8.68
2024-01-03T18:58:30.449Z,8.66
2024-01-03T19:01:00.127Z,8.63
2024-01-03T19:03:28.090Z,8.57
2024-01-03T19:05:55.994Z,8.57
2024-01-03T19:08:23.922Z,8.54
2024-01-03T19:10:51.831Z,8.52
2024-01-03T19:13:19.785Z,8.49
2024-01-03T19:15:47.741Z,8.42
2024-01-03T19:18:18.416Z,8.36
2024-01-03T19:20:46.624Z,8.26
2024-01-03T19:23:14.696Z,8.21
2024-01-03T19:25:42.837Z,8.28
2024-01-03T19:28:11.157Z,8.29
2024-01-03T19:30:40.313Z,8.25
2024-01-03T19:33:08.338Z,8.24
2024-01-03T19:35:36.434Z,8.30
2024-01-03T19:38:04.557Z,8.22
2024-01-03T19:40:32.492Z,8.32
2024-01-03T19:43:00.332Z,8.25
2024-01-03T19:45:28.241Z,8.26
2024-01-03T19:47:58.733Z,8.36
2024-01-03T19:50:26.835Z,8.39
2024-01-03T19:52:54.782Z,8.24
2024-01-03T19:55:22.649Z,8.30
2024-01-03T19:57:50.586Z,8.16
2024-01-03T20:00:20.257Z,8.06
2024-01-03T20:02:49.027Z,8.02
2024-01-03T20:05:18.687Z,8.11
2024-01-03T20:07:48.232Z,8.06
2024-01-03T20:10:16.196Z,8.08
2024-01-03T20:12:44.611Z,8.04
2024-01-03T20:15:12.885Z,8.11
2024-01-03T20:17:47.368Z,8.19
2024-01-03T20:20:15.993Z,8.16
2024-01-03T20:22:44.211Z,8.19
2024-01-03T20:25:13.325Z,8.13
2024-01-03T20:27:43.769Z,8.21
2024-01-03T20:30:13.233Z,8.12
2024-01-03T20:32:42.647Z,8.05
2024-01-03T20:35:12.659Z,8.13
2024-01-03T20:37:41.595Z,8.25
2024-01-03T20:40:13.211Z,8.22
2024-01-03T20:42:44.517Z,8.26
2024-01-03T20:45:12.674Z,8.25
2024-01-03T20:47:40.965Z,8.25
2024-01-03T20:50:09.608Z,8.28
2024-01-03T20:52:37.648Z,8.29
2024-01-03T20:55:06.094Z,8.22
2024-01-03T20:57:34.034Z,8.18
2024-01-03T21:00:02.157Z,8.22
2024-01-03T21:02:30.179Z,8.22
2024-01-03T21:04:58.469Z,8.26
2024-01-03T21:07:26.399Z,8.28
2024-01-03T21:09:54.292Z,8.19
2024-01-03T21:12:22.153Z,8.28
2024-01-03T21:14:50.261Z,8.26
2024-01-03T21:17:18.392Z,8.22
2024-01-03T21:19:46.440Z,8.30
2024-01-03T21:22:14.589Z,8.24
2024-01-03T21:24:43.100Z,8.28
2024-01-03T21:27:44.374Z,8.28
2024-01-03T21:29:59.018Z,8.22
2024-01-03T21:32:26.993Z,8.26
2024-01-03T21:34:55.132Z,8.22
2024-01-03T21:37:23.142Z,8.22
2024-01-03T21:39:58.513Z,8.25
2024-01-03T21:42:26.377Z,8.22
2024-01-03T21:44:54.757Z,8.25
2024-01-03T21:47:22.595Z,8.22
2024-01-03T21:49:50.783Z,8.16
2024-01-03T21:52:18.654Z,8.11
2024-01-03T21:54:46.598Z,8.19
2024-01-03T21:57:14.921Z,8.25
2024-01-03T21:59:43.067Z,8.08
2024-01-03T22:02:11.814Z,8.04
2024-01-03T22:04:40.345Z,8.12
2024-01-03T22:07:08.937Z,8.08
2024-01-03T22:09:37.434Z,8.08
2024-01-03T22:12:09.504Z,8.22
2024-01-03T22:14:47.675Z,8.21
2024-01-03T22:17:16.314Z,8.22
2024-01-03T22:19:44.980Z,8.25
2024-01-03T22:22:13.707Z,8.19
2024-01-03T22:24:42.160Z,8.21
2024-01-03T22:27:10.855Z,8.28
2024-01-03T22:29:39.912Z,8.33
2024-01-03T22:32:08.191Z,8.30
2024-01-03T22:34:36.778Z,8.38
2024-01-03T22:37:04.730Z,8.35
2024-01-03T22:39:32.607Z,8.25
2024-01-03T22:42:00.474Z,8.32
2024-01-03T22:44:28.358Z,8.28
2024-01-03T22:46:56.241Z,8.25
2024-01-03T22:49:24.319Z,8.22
2024-01-03T22:51:52.285Z,8.18
2024-01-03T22:54:20.931Z,8.21
2024-01-03T22:56:48.835Z,8.25
2024-01-03T22:59:16.789Z,8.25
2024-01-03T23:01:44.765Z,8.18
2024-01-03T23:04:12.661Z,8.22
2024-01-03T23:06:40.960Z,8.08
2024-01-03T23:09:09.805Z,8.15
2024-01-03T23:11:37.810Z,8.12
2024-01-03T23:14:08.340Z,8.11
2024-01-03T23:16:37.130Z,8.12
2024-01-03T23:19:05.406Z,8.15
2024-01-03T23:21:33.920Z,8.15
2024-01-03T23:24:01.850Z,8.13
2024-01-03T23:26:29.804Z,8.15
2024-01-03T23:28:57.843Z,8.18
2024-01-03T23:31:25.751Z,8.11
2024-01-03T23:33:53.714Z,8.15
2024-01-03T23:36:21.713Z,8.11
2024-01-03T23:38:49.545Z,8.16
2024-01-03T23:41:17.904Z,8.16
2024-01-03T23:43:47.731Z,8.13
2024-01-03T23:46:16.223Z,8.24
2024-01-03T23:48:44.676Z,8.13
2024-01-03T23:51:19.474Z,8.11
2024-01-03T23:53:49.525Z,8.13
2024-01-03T23:56:23.826Z,8.12
2024-01-03T23:58:51.684Z,8.08
